This is the latest recevied weather packets stored in our database for station/object AB2HM. If no packets are shown the sender has not sent any weather packets the latest 10 day(s).
| Time | Temp. | Humidity | Pressure | Rain* | Wind** | Luminosity | Snow |
|---|---|---|---|---|---|---|---|
| 1788447126 | 26.67° C | 82% | 1017.3 hPa | 0 mm | - | - | - |
| 1788445320 | 26.11° C | 86% | 1017.4 hPa | 0 mm | - | - | - |
| 1788443519 | 25° C | 92% | 1017 hPa | 0.76 mm | - | - | - |
| 1788441703 | 23.89° C | 94% | 1016.8 hPa | 1.52 mm | - | - | - |
| 1788439896 | 23.33° C | 95% | 1017.1 hPa | 1.78 mm | - | - | - |
| 1788438095 | 22.78° C | 95% | 1016.3 hPa | 2.29 mm | - | - | - |
| 1788436292 | 22.78° C | 95% | 1018.4 hPa | 2.54 mm | - | - | - |
| 1788434488 | 22.78° C | 95% | 1018.7 hPa | 2.79 mm | - | - | - |
| 1788432683 | 22.22° C | 95% | 1018.6 hPa | 3.05 mm | - | - | - |
| 1788430875 | 22.22° C | 95% | 1018.1 hPa | 3.05 mm | - | - | - |
| 1788429065 | 22.22° C | 94% | 1018.2 hPa | 3.05 mm | - | - | - |
| 1788427262 | 22.78° C | 94% | 1018.7 hPa | 2.79 mm | - | - | - |
| 1788425453 | 22.78° C | 94% | 1020.5 hPa | 2.54 mm | - | - | - |
| 1788423642 | 22.22° C | 94% | 1018.4 hPa | 2.29 mm | - | - | - |
| 1788421840 | 22.22° C | 94% | 1018.5 hPa | 2.29 mm | - | - | - |
| 1788420040 | 22.22° C | 93% | 1018.5 hPa | 2.54 mm | - | - | - |
| 1788418234 | 22.78° C | 92% | 1018.8 hPa | 1.78 mm | - | - | - |
| 1788416413 | 22.78° C | 91% | 1020 hPa | 0.51 mm | - | - | - |
| 1788414604 | 22.78° C | 90% | 1019.6 hPa | 0 mm | - | - | - |
| 1788412797 | 22.78° C | 90% | 1019.1 hPa | 0 mm | - | - | - |
| 1788410989 | 22.78° C | 90% | 1019 hPa | 0 mm | - | - | - |
| 1788409191 | 23.33° C | 90% | 1019.6 hPa | 0 mm | - | - | - |
| 1788407373 | 23.33° C | 89% | 1020 hPa | 0 mm | - | - | - |
| 1788405566 | 23.33° C | 89% | 1019.8 hPa | 0 mm | - | - | - |
| 1788403759 | 23.33° C | 89% | 1020.1 hPa | 0 mm | - | - | - |
* Rain latest hour (hover to see other rain measurements)
** Current wind speed in m/s (hover to see current wind gust speed)